INDIA METEOROLOGICAL DEPARTMENT, R.M.C. NEW DELHI
Dated:23 - 6 - 2017
METARS OF ALTERNATE AIRPORTS
Delhi      
VIDP 230300Z 30003KT 2200 HZ NSC 31/24 Q1003 NOSIG=
Amritsar   
VIAR 230300Z 00000KT 3000 BR NSC 29/27 Q1003 BECMG 5000 BR=
Lucknow    
VILK 230300Z 00000KT 3000 HZ FEW100 34/25 Q1002 NOSIG=
Jaipur     
VIJP 230300Z 21005KT 4000 HZ FEW100 30/21 Q1005 NOSIG=
Ahmedabad  
VAAH 230300Z 24009KT 4000 HZ SCT020 BKN080 32/24 Q1004 NOSIG=
Udaipur    
VAUD 230300Z 18004KT 5000 HZ SCT015 SCT025 BKN080 26/22 Q1007 TEMPO 3000 RA=
Mumbai     
VABB 230300Z 26011KT 3000 HZ SCT018 SCT025 FEW025TCU 31/26 Q1006 TEMPO 1500 SHRA=